createdAt,value
2024-01-14T00:04:12.349Z,116.16
2024-01-14T00:14:16.667Z,118.99
2024-01-14T00:24:19.485Z,118.99
2024-01-14T00:34:23.568Z,118.29
2024-01-14T00:44:27.725Z,117.99
2024-01-14T00:54:32.394Z,118.99
2024-01-14T01:04:35.654Z,118.99
2024-01-14T01:14:39.854Z,118.99
2024-01-14T01:24:42.711Z,118.99
2024-01-14T01:34:46.988Z,118.99
2024-01-14T01:44:49.921Z,118.99
2024-01-14T01:54:55.984Z,118.99
2024-01-14T02:04:58.911Z,118.99
2024-01-14T02:15:03.514Z,118.99
2024-01-14T02:25:08.222Z,118.99
2024-01-14T02:35:10.965Z,118.99
2024-01-14T02:45:15.586Z,118.91
2024-01-14T02:55:19.563Z,118.46
2024-01-14T03:05:23.854Z,117.83
2024-01-14T03:15:26.752Z,117.63
2024-01-14T03:25:30.910Z,117.73
2024-01-14T03:35:33.987Z,117.39
2024-01-14T03:45:38.147Z,116.69
2024-01-14T03:55:41.025Z,116.80
2024-01-14T04:05:45.295Z,116.57
2024-01-14T04:15:48.366Z,115.99
2024-01-14T04:25:52.532Z,115.35
2024-01-14T04:35:55.472Z,115.67
2024-01-14T04:46:00.565Z,116.02
2024-01-14T04:56:07.982Z,116.03
2024-01-14T05:06:12.987Z,115.91
2024-01-14T05:16:15.899Z,116.70
2024-01-14T05:26:20.277Z,116.70
2024-01-14T05:36:23.279Z,116.60
2024-01-14T05:46:27.490Z,115.96
2024-01-14T05:56:31.103Z,114.93
2024-01-14T06:06:35.352Z,116.78
2024-01-14T06:16:39.453Z,117.88
2024-01-14T06:26:43.716Z,118.15
2024-01-14T06:36:46.531Z,118.36
2024-01-14T06:46:52.924Z,118.45
2024-01-14T06:56:56.085Z,118.80
2024-01-14T07:07:00.315Z,118.99
2024-01-14T07:17:03.290Z,118.99
2024-01-14T07:27:07.664Z,118.72
2024-01-14T07:37:10.425Z,118.72
2024-01-14T07:47:14.572Z,118.60
2024-01-14T07:57:17.382Z,118.47
2024-01-14T08:07:21.777Z,118.15
2024-01-14T08:17:24.703Z,117.62
2024-01-14T08:27:30.173Z,117.57
2024-01-14T08:37:32.948Z,117.75
2024-01-14T08:47:37.089Z,118.02
2024-01-14T08:57:40.685Z,118.10
2024-01-14T09:07:44.897Z,118.00
2024-01-14T09:17:47.937Z,117.60
2024-01-14T09:27:52.272Z,116.75
2024-01-14T09:37:55.857Z,116.75
2024-01-14T09:48:00.951Z,115.80
2024-01-14T09:58:06.152Z,115.42
2024-01-14T10:08:10.458Z,114.99
2024-01-14T10:18:13.389Z,113.75
2024-01-14T10:28:18.956Z,111.52
2024-01-14T10:38:23.466Z,112.06
2024-01-14T10:48:29.124Z,112.57
2024-01-14T10:58:36.990Z,110.48
2024-01-14T11:08:41.656Z,110.49
2024-01-14T11:18:49.504Z,110.58
2024-01-14T11:28:55.632Z,106.01
2024-01-14T11:38:58.574Z,106.72
2024-01-14T11:49:10.176Z,105.94
2024-01-14T11:59:34.134Z,104.63
2024-01-14T12:09:53.883Z,104.22
2024-01-14T12:20:00.987Z,105.52
2024-01-14T12:30:06.372Z,99.42
2024-01-14T12:40:10.272Z,96.29
2024-01-14T12:50:16.061Z,82.88
2024-01-14T13:00:19.057Z,79.07
2024-01-14T13:10:23.255Z,90.41
2024-01-14T13:20:26.068Z,94.51
2024-01-14T13:30:30.249Z,82.39
2024-01-14T13:40:34.536Z,97.68
2024-01-14T13:50:39.124Z,101.78
2024-01-14T14:00:41.996Z,99.02
2024-01-14T14:10:53.484Z,93.56
2024-01-14T14:20:59.506Z,105.98
2024-01-14T14:31:03.883Z,113.83
2024-01-14T14:41:08.128Z,115.80
2024-01-14T14:51:19.193Z,116.56
2024-01-14T15:01:33.015Z,117.88
2024-01-14T15:11:42.799Z,118.25
2024-01-14T15:21:45.707Z,117.71
2024-01-14T15:31:50.571Z,117.14
2024-01-14T15:41:53.427Z,116.54
2024-01-14T15:51:57.666Z,116.43
2024-01-14T16:02:00.521Z,115.56
2024-01-14T16:12:05.242Z,117.06
2024-01-14T16:22:08.292Z,116.67
2024-01-14T16:32:12.590Z,116.44
2024-01-14T16:42:15.448Z,116.86
2024-01-14T16:52:19.654Z,116.96
2024-01-14T17:02:22.727Z,117.06
2024-01-14T17:12:28.507Z,117.57
2024-01-14T17:22:31.356Z,117.51
2024-01-14T17:32:35.480Z,117.70
2024-01-14T17:42:38.858Z,118.17
2024-01-14T17:52:45.041Z,118.92
2024-01-14T18:02:58.529Z,118.99
2024-01-14T18:13:13.315Z,118.60
2024-01-14T18:23:17.236Z,117.41
2024-01-14T18:33:21.567Z,116.75
2024-01-14T18:43:25.336Z,116.38
2024-01-14T18:53:29.787Z,116.32
2024-01-14T19:03:32.622Z,116.08
2024-01-14T19:13:36.773Z,116.05
2024-01-14T19:23:39.494Z,117.14
2024-01-14T19:33:43.966Z,118.47
2024-01-14T19:43:47.223Z,118.91
2024-01-14T19:53:51.573Z,118.99
2024-01-14T20:03:54.483Z,118.99
2024-01-14T20:14:04.112Z,118.81
2024-01-14T20:24:07.916Z,118.99
2024-01-14T20:34:12.195Z,118.99
2024-01-14T20:44:15.421Z,118.99
2024-01-14T20:54:19.801Z,118.99
2024-01-14T21:04:22.960Z,118.99
2024-01-14T21:14:28.085Z,118.99
2024-01-14T21:24:30.983Z,118.99
2024-01-14T21:34:36.898Z,118.99
2024-01-14T21:44:39.810Z,118.79
2024-01-14T21:54:44.577Z,118.92
2024-01-14T22:04:47.582Z,118.99
2024-01-14T22:14:51.775Z,118.99
2024-01-14T22:24:56.316Z,118.99
2024-01-14T22:35:01.844Z,118.99
2024-01-14T22:45:05.298Z,118.99
2024-01-14T22:55:10.379Z,118.99
2024-01-14T23:05:13.311Z,118.98
2024-01-14T23:15:17.604Z,116.15
2024-01-14T23:25:20.512Z,115.08
2024-01-14T23:35:24.618Z,114.56
2024-01-14T23:45:28.560Z,114.25
2024-01-14T23:55:32.674Z,112.82
